アシガバート の空港の天気 - METARとTAF

アシガバート空港 ( UTAA / ASB ) - トルクメニスタン アシガバート
飛行場実況気象(Metar)
観測時間05/28 14:00 TMT (05/28 09:00 UTC)
風向・風速東 4m/s
視程10km以上
天気現象
全天の4割程度の雲 雲底高度 1010m
気温27℃
湿度28%
気圧1019hPa
METARUTAA 280900Z 09008KT 040V140 9999 SCT033 27/07 Q1019 R88/70D NOSIG
過去の天気等 Google飛行場航空写真 Wunderground天気予報

過去48時間のMETAR

飛行場予報(TAF)
発表時間: 5/28 09:45 TMT (5/28 04:45 UTC)
予報対象時間: 28日11時 TMT ~ 29日11時 TMT
風向・風速東 8m/s
視程6000m
全天の4割程度の雲 雲底高度 1520m
28日11時 TMT ~ 28日17時 TMT に一時的に
風向・風速東南東 7m/s 瞬間風速 12m/s
視程4000m
天気現象低い風塵
28日23時 TMT ~ 29日7時 TMT に一時的に
風向・風速南南西 6m/s
29日7時 TMT ~ 29日9時 TMT に徐々に
風向・風速東 7m/s 瞬間風速 12m/s
TAF UTAA 280445Z 2806/2906 09016KT 6000 SCT050
TEMPO 2806/2812 12014G24KT 4000 DRDU
TEMPO 2818/2902 20012KT
BECMG 2902/2904 10014G24KT